Time;durP1;ratioP1;P1;durP2;ratioP2;P2;SDS_P1;SDS_P2;PMS_P1;PMS_P2;Temp;Humidity;BMP_temperature;BMP_pressure;BME280_temperature;BME280_humidity;BME280_pressure;Samples;Min_cycle;Max_cycle;Signal;HPM_P1;HPM_P2
2021/08/25 00:01:27;;;;;;;11.00;9.10;;;14.90;82.20;;;;;;5119570;27;20468;-83
2021/08/25 00:03:54;;;;;;;12.25;8.60;;;15.00;81.60;;;;;;5123141;27;20479;-82
2021/08/25 00:06:20;;;;;;;7.80;7.05;;;15.00;81.30;;;;;;5119440;27;20023;-82
2021/08/25 00:08:46;;;;;;;8.93;8.02;;;15.10;81.10;;;;;;5121833;27;20030;-82
2021/08/25 00:11:12;;;;;;;8.82;7.25;;;15.10;80.40;;;;;;5125366;27;20030;-82
2021/08/25 00:13:38;;;;;;;11.00;8.48;;;15.10;80.00;;;;;;5121760;27;20037;-82
2021/08/25 00:16:04;;;;;;;11.65;8.55;;;15.10;79.40;;;;;;5140299;27;20027;-83
2021/08/25 00:18:33;;;;;;;8.82;7.90;;;15.20;79.20;;;;;;5107323;27;20087;-83
2021/08/25 00:21:00;;;;;;;8.95;7.97;;;15.20;79.00;;;;;;5123597;27;20114;-83
2021/08/25 00:23:26;;;;;;;9.18;8.27;;;15.20;79.60;;;;;;5122243;27;20134;-83
2021/08/25 00:25:54;;;;;;;11.77;10.40;;;15.20;78.90;;;;;;5120844;27;20489;-83
2021/08/25 00:28:22;;;;;;;11.38;9.50;;;15.20;79.00;;;;;;5139256;27;20053;-84
2021/08/25 00:30:48;;;;;;;12.15;10.82;;;15.30;79.20;;;;;;5106237;27;20072;-82
2021/08/25 00:33:16;;;;;;;12.95;10.63;;;15.20;79.50;;;;;;5105150;27;20035;-83
2021/08/25 00:35:42;;;;;;;16.75;10.70;;;15.20;79.10;;;;;;5138803;27;20028;-83
2021/08/25 00:38:10;;;;;;;13.35;10.32;;;15.20;77.50;;;;;;5119736;27;20054;-83
2021/08/25 00:40:37;;;;;;;13.48;11.15;;;15.30;77.30;;;;;;5085248;27;20070;-83
2021/08/25 00:43:08;;;;;;;12.90;10.32;;;15.30;77.00;;;;;;5101960;27;20034;-83
2021/08/25 00:45:44;;;;;;;14.20;11.35;;;15.30;77.60;;;;;;5119160;27;20051;-81
2021/08/25 00:48:11;;;;;;;;;;;15.30;78.50;;;;;;5119371;27;20098;-81
2021/08/25 00:50:38;;;;;;;14.13;12.13;;;15.10;81.10;;;;;;5137494;27;19907;-82
2021/08/25 00:53:06;;;;;;;20.30;14.13;;;15.10;82.20;;;;;;5119133;27;20038;-80
2021/08/25 00:55:39;;;;;;;20.10;13.77;;;14.90;83.50;;;;;;5118738;27;20027;-81
2021/08/25 00:58:06;;;;;;;14.45;11.77;;;14.70;83.60;;;;;;5136846;27;20054;-80
2021/08/25 01:00:32;;;;;;;11.75;10.52;;;14.80;83.50;;;;;;5118312;27;20026;-81
2021/08/25 01:03:15;;;;;;;10.65;9.48;;;14.80;81.40;;;;;;5138691;27;20033;-82
2021/08/25 01:05:42;;;;;;;15.65;11.20;;;14.90;79.80;;;;;;5136168;27;20016;-81
2021/08/25 01:08:12;;;;;;;15.50;11.88;;;14.90;79.60;;;;;;5117121;27;20494;-81
2021/08/25 01:10:38;;;;;;;15.75;12.90;;;14.90;79.00;;;;;;5117701;27;20030;-80
2021/08/25 01:13:07;;;;;;;18.48;14.55;;;14.90;80.90;;;;;;5117429;27;20391;-80
2021/08/25 01:15:37;;;;;;;15.30;12.90;;;14.80;82.10;;;;;;5117457;27;20015;-80
2021/08/25 01:18:05;;;;;;;15.23;13.18;;;14.80;83.80;;;;;;5117880;27;20100;-79
2021/08/25 01:20:32;;;;;;;15.05;12.60;;;14.80;83.20;;;;;;5117926;27;20038;-79
2021/08/25 01:22:59;;;;;;;21.80;15.55;;;14.70;83.90;;;;;;5117370;27;20023;-80
2021/08/25 01:25:31;;;;;;;19.80;14.57;;;14.70;84.20;;;;;;5117567;27;20027;-79
2021/08/25 01:28:06;;;;;;;26.05;14.90;;;14.70;84.50;;;;;;5118044;27;20030;-80
2021/08/25 01:30:35;;;;;;;20.40;13.80;;;14.60;84.80;;;;;;5135678;27;20015;-79
2021/08/25 01:33:03;;;;;;;18.33;14.15;;;14.60;84.90;;;;;;5117158;27;20043;-79
2021/08/25 01:35:38;;;;;;;17.25;13.98;;;14.60;84.70;;;;;;5117212;27;20019;-79
2021/08/25 01:38:05;;;;;;;16.73;14.35;;;14.50;84.70;;;;;;5117197;27;20062;-80
2021/08/25 01:40:32;;;;;;;18.45;15.32;;;14.50;84.70;;;;;;5100025;27;20076;-79
2021/08/25 01:42:59;;;;;;;15.90;13.82;;;14.40;85.40;;;;;;5116817;27;20079;-79
2021/08/25 01:45:24;;;;;;;16.23;13.73;;;14.50;85.40;;;;;;5116938;27;20031;-79
2021/08/25 01:47:50;;;;;;;18.30;15.20;;;14.50;85.50;;;;;;5117023;27;20020;-79
2021/08/25 01:50:15;;;;;;;22.00;15.05;;;14.40;85.00;;;;;;5117104;27;20475;-79
2021/08/25 01:52:41;;;;;;;16.63;13.23;;;14.40;85.10;;;;;;5116580;27;20039;-79
2021/08/25 01:55:07;;;;;;;15.45;13.65;;;14.40;85.80;;;;;;5116625;27;20361;-79
2021/08/25 01:57:32;;;;;;;19.98;14.45;;;14.40;84.70;;;;;;5119085;27;20023;-78
2021/08/25 01:59:58;;;;;;;15.77;13.60;;;14.50;84.50;;;;;;5118331;27;20078;-80
2021/08/25 02:02:24;;;;;;;14.68;11.63;;;14.40;84.10;;;;;;5117135;27;20440;-80
2021/08/25 02:04:49;;;;;;;17.13;13.75;;;14.50;84.10;;;;;;5135019;27;20023;-81
2021/08/25 02:07:15;;;;;;;15.50;13.20;;;14.50;84.00;;;;;;5116221;27;20030;-81
2021/08/25 02:09:41;;;;;;;15.82;13.27;;;14.50;83.90;;;;;;5116320;27;20114;-81
2021/08/25 02:12:06;;;;;;;21.05;14.38;;;14.50;84.10;;;;;;5099104;27;20039;-81
2021/08/25 02:14:34;;;;;;;17.17;12.93;;;14.50;84.20;;;;;;5134743;27;20031;-81
2021/08/25 02:16:59;;;;;;;18.95;15.70;;;14.40;84.10;;;;;;5099138;27;20058;-81
2021/08/25 02:19:25;;;;;;;17.63;14.50;;;14.40;84.00;;;;;;5115391;27;20059;-81
2021/08/25 02:21:52;;;;;;;20.17;15.73;;;14.30;84.60;;;;;;5115990;27;20025;-81
2021/08/25 02:24:18;;;;;;;16.35;13.50;;;14.20;85.10;;;;;;5116369;27;20035;-81
2021/08/25 02:26:44;;;;;;;16.75;14.35;;;14.20;85.30;;;;;;5115952;27;20019;-81
2021/08/25 02:29:10;;;;;;;21.75;15.75;;;14.10;85.60;;;;;;5082419;27;20024;-81
2021/08/25 02:31:35;;;;;;;20.73;15.50;;;14.10;85.70;;;;;;5115957;27;20034;-81
2021/08/25 02:34:01;;;;;;;20.27;15.48;;;14.00;85.90;;;;;;5115786;27;20035;-80
2021/08/25 02:36:28;;;;;;;20.30;15.48;;;14.00;86.10;;;;;;5115889;27;20019;-81
2021/08/25 02:38:54;;;;;;;21.30;15.95;;;13.90;86.20;;;;;;5098929;27;20463;-80
2021/08/25 02:41:20;;;;;;;23.67;16.75;;;13.80;86.70;;;;;;5115748;27;20039;-81
2021/08/25 02:43:46;;;;;;;21.48;16.05;;;13.70;87.00;;;;;;5115814;27;20042;-81
2021/08/25 02:46:12;;;;;;;18.38;14.93;;;13.60;87.20;;;;;;5115525;27;20379;-80
2021/08/25 02:48:38;;;;;;;17.45;14.82;;;13.50;87.50;;;;;;5115786;28;20483;-81
2021/08/25 02:51:04;;;;;;;17.10;14.55;;;13.60;87.50;;;;;;5115836;27;20114;-80
2021/08/25 02:53:29;;;;;;;14.80;12.20;;;13.70;87.20;;;;;;5114992;28;20039;-80
2021/08/25 02:55:55;;;;;;;17.15;13.13;;;13.80;86.90;;;;;;5115392;28;20026;-80
2021/08/25 02:58:23;;;;;;;15.68;13.60;;;13.90;86.70;;;;;;5133942;27;20053;-80
2021/08/25 03:00:49;;;;;;;17.50;14.20;;;13.90;86.00;;;;;;5115613;27;20467;-80
2021/08/25 03:03:14;;;;;;;14.73;12.60;;;14.00;85.80;;;;;;5115834;28;20023;-80
2021/08/25 03:05:40;;;;;;;19.98;15.18;;;13.90;85.60;;;;;;5098510;27;20406;-80
2021/08/25 03:08:05;;;;;;;19.98;14.63;;;14.00;85.40;;;;;;5115433;28;20511;-80
2021/08/25 03:10:31;;;;;;;15.05;11.70;;;14.00;85.10;;;;;;5098656;28;20491;-81
2021/08/25 03:12:57;;;;;;;17.35;13.20;;;14.00;85.20;;;;;;5098521;28;20038;-81
2021/08/25 03:15:23;;;;;;;11.60;9.95;;;13.90;84.80;;;;;;5115498;28;20026;-80
2021/08/25 03:17:50;;;;;;;12.40;10.35;;;13.90;83.30;;;;;;5115683;28;20047;-80
2021/08/25 03:20:17;;;;;;;11.23;9.75;;;14.00;83.50;;;;;;5115961;28;20106;-80
2021/08/25 03:22:43;;;;;;;11.32;9.63;;;14.10;83.60;;;;;;5115545;28;20472;-81
2021/08/25 03:25:10;;;;;;;11.38;9.40;;;14.20;83.60;;;;;;5133941;28;20057;-81
2021/08/25 03:27:36;;;;;;;9.57;8.05;;;14.20;82.50;;;;;;5133678;28;20027;-81
2021/08/25 03:30:09;;;;;;;9.35;7.55;;;14.10;82.50;;;;;;5120872;27;20023;-79
2021/08/25 03:32:35;;;;;;;8.70;7.38;;;14.20;82.40;;;;;;5102921;27;20046;-80
2021/08/25 03:35:00;;;;;;;9.52;7.63;;;14.30;82.10;;;;;;5102574;27;20031;-79
2021/08/25 03:37:26;;;;;;;10.38;8.40;;;14.30;81.90;;;;;;5119229;27;20109;-79
2021/08/25 03:39:52;;;;;;;13.68;11.38;;;14.40;81.90;;;;;;5119066;27;20043;-79
2021/08/25 03:42:18;;;;;;;16.60;11.45;;;14.40;82.30;;;;;;5138087;27;20031;-79
2021/08/25 03:44:45;;;;;;;18.25;12.63;;;14.40;82.10;;;;;;5119199;27;20026;-79
2021/08/25 03:47:11;;;;;;;13.55;10.60;;;14.30;82.60;;;;;;5121340;27;20027;-79
2021/08/25 03:49:38;;;;;;;12.40;10.90;;;14.20;82.20;;;;;;5102266;27;20468;-80
2021/08/25 03:52:04;;;;;;;14.02;11.80;;;14.10;82.60;;;;;;5119090;27;20076;-80
2021/08/25 03:54:31;;;;;;;12.77;10.82;;;14.10;83.10;;;;;;5118924;27;20016;-80
2021/08/25 03:56:57;;;;;;;14.82;10.60;;;14.00;83.10;;;;;;5119174;27;20535;-79
2021/08/25 03:59:25;;;;;;;16.17;11.70;;;14.10;83.10;;;;;;5118896;27;20058;-81
2021/08/25 04:01:51;;;;;;;17.05;10.90;;;14.10;83.30;;;;;;5085412;27;20412;-81
2021/08/25 04:04:18;;;;;;;13.65;10.75;;;14.10;83.10;;;;;;5119029;27;20065;-81
2021/08/25 04:06:43;;;;;;;12.07;9.50;;;14.10;82.90;;;;;;5118937;27;20019;-80
2021/08/25 04:09:09;;;;;;;12.45;9.75;;;14.10;82.40;;;;;;5118731;27;20039;-81
2021/08/25 04:11:35;;;;;;;11.50;8.80;;;14.20;82.40;;;;;;5118628;27;20021;-82
2021/08/25 04:14:01;;;;;;;10.32;9.15;;;14.20;82.40;;;;;;5136940;27;20386;-80
2021/08/25 04:16:28;;;;;;;15.15;12.18;;;14.20;82.30;;;;;;5118773;27;20015;-79
2021/08/25 04:18:56;;;;;;;14.77;11.35;;;14.10;82.40;;;;;;5101722;27;20031;-80
2021/08/25 04:21:22;;;;;;;14.90;12.00;;;14.00;82.70;;;;;;5136804;27;20035;-80
2021/08/25 04:23:48;;;;;;;16.48;11.48;;;14.10;82.60;;;;;;5118244;27;20042;-80
2021/08/25 04:26:17;;;;;;;13.00;10.75;;;14.00;82.60;;;;;;5101628;27;20024;-80
2021/08/25 04:28:43;;;;;;;16.98;12.35;;;13.90;82.50;;;;;;5118574;27;20073;-80
2021/08/25 04:31:09;;;;;;;14.98;12.73;;;13.90;83.40;;;;;;5119130;27;20027;-80
2021/08/25 04:33:36;;;;;;;15.43;11.57;;;13.90;83.00;;;;;;5128224;27;20031;-80
2021/08/25 04:36:03;;;;;;;13.05;11.40;;;13.90;83.10;;;;;;5141405;27;20090;-80
2021/08/25 04:38:29;;;;;;;15.93;12.38;;;13.90;83.10;;;;;;5120090;27;20083;-80
2021/08/25 04:40:58;;;;;;;19.40;13.82;;;13.90;83.10;;;;;;5114399;28;20067;-79
2021/08/25 04:43:29;;;;;;;14.20;11.95;;;13.90;83.40;;;;;;5116031;28;20483;-79
2021/08/25 04:45:56;;;;;;;18.98;13.13;;;13.90;83.40;;;;;;5114814;28;20032;-79
2021/08/25 04:48:22;;;;;;;17.45;11.93;;;13.80;83.00;;;;;;5116041;28;20072;-80
2021/08/25 04:50:49;;;;;;;16.60;12.30;;;13.80;83.30;;;;;;5097527;28;20035;-80
2021/08/25 04:53:15;;;;;;;17.42;13.15;;;13.80;83.40;;;;;;5114582;28;20043;-80
2021/08/25 04:55:40;;;;;;;14.25;12.60;;;13.80;83.10;;;;;;5114505;28;20113;-79
2021/08/25 04:58:07;;;;;;;12.48;10.77;;;13.80;83.70;;;;;;5114223;28;20035;-80
2021/08/25 05:00:34;;;;;;;13.38;10.23;;;13.90;83.10;;;;;;5114391;28;20024;-80
2021/08/25 05:03:01;;;;;;;12.35;10.02;;;13.80;82.90;;;;;;5097295;28;20042;-80
2021/08/25 05:05:27;;;;;;;15.90;10.63;;;13.90;82.80;;;;;;5115431;28;20408;-79
2021/08/25 05:07:53;;;;;;;12.77;9.30;;;14.00;81.60;;;;;;5115120;28;20126;-80
2021/08/25 05:10:19;;;;;;;13.63;10.18;;;14.00;81.60;;;;;;5115353;27;20130;-84
2021/08/25 05:12:45;;;;;;;14.80;10.43;;;14.10;81.10;;;;;;5096867;28;20134;-80
2021/08/25 05:15:16;;;;;;;15.00;11.75;;;14.20;81.10;;;;;;5113984;28;20086;-79
2021/08/25 05:17:42;;;;;;;16.48;11.60;;;14.20;80.70;;;;;;5114044;28;20019;-80
2021/08/25 05:20:09;;;;;;;14.98;11.07;;;14.20;80.50;;;;;;5113781;28;20341;-80
2021/08/25 05:22:36;;;;;;;16.13;12.10;;;14.10;80.60;;;;;;5113680;28;20074;-80
2021/08/25 05:25:03;;;;;;;22.67;14.13;;;14.10;80.50;;;;;;5113679;28;20050;-81
2021/08/25 05:27:29;;;;;;;16.63;12.98;;;14.10;80.80;;;;;;5114982;28;20039;-81
2021/08/25 05:29:56;;;;;;;16.58;12.55;;;14.10;80.80;;;;;;5113487;28;20023;-80
2021/08/25 05:32:22;;;;;;;16.13;11.65;;;13.90;81.40;;;;;;5113494;28;20027;-83
2021/08/25 05:34:48;;;;;;;13.88;11.15;;;13.90;81.40;;;;;;5115047;28;20032;-83
2021/08/25 05:37:15;;;;;;;14.05;10.55;;;14.00;81.40;;;;;;5113895;28;20020;-82
2021/08/25 05:40:05;;;;;;;15.77;13.80;;;14.10;81.40;;;;;;5113452;28;20055;-84
2021/08/25 05:42:33;;;;;;;20.45;14.98;;;14.00;81.10;;;;;;5113618;28;20035;-83
2021/08/25 05:45:21;;;;;;;18.88;14.52;;;13.70;81.80;;;;;;5096819;28;20027;-83
2021/08/25 05:47:59;;;;;;;15.75;13.45;;;13.60;82.80;;;;;;5114985;28;20026;-83
2021/08/25 05:50:30;;;;;;;20.90;15.40;;;13.50;83.40;;;;;;5097411;28;20073;-85
2021/08/25 05:52:58;;;;;;;17.50;14.38;;;13.50;83.40;;;;;;5114365;28;20044;-84
2021/08/25 05:55:56;;;;;;;15.63;13.88;;;13.50;83.50;;;;;;5112881;28;20043;-84
2021/08/25 05:58:45;;;;;;;19.65;14.57;;;13.60;83.00;;;;;;5099233;28;20035;-83
2021/08/25 06:01:38;;;;;;;19.58;15.10;;;13.80;82.60;;;;;;5114633;27;20062;-82
2021/08/25 06:04:04;;;;;;;17.13;13.60;;;13.60;82.90;;;;;;5114665;28;20161;-81
2021/08/25 06:06:56;;;;;;;17.10;13.35;;;13.70;82.90;;;;;;5096670;28;20122;-82
2021/08/25 06:09:23;;;;;;;15.50;12.95;;;13.80;82.70;;;;;;5113408;28;20109;-83
2021/08/25 06:11:51;;;;;;;17.48;14.88;;;14.00;82.40;;;;;;5114305;28;20068;-81
2021/08/25 06:14:17;;;;;;;16.58;13.43;;;14.10;81.50;;;;;;5113062;28;20027;-83
2021/08/25 06:16:45;;;;;;;14.55;12.10;;;14.20;81.00;;;;;;5112901;28;20028;-85
2021/08/25 06:19:16;;;;;;;16.95;11.75;;;14.30;81.00;;;;;;5113041;28;20114;-84
2021/08/25 06:22:08;;;;;;;19.48;12.40;;;14.60;80.60;;;;;;5095940;28;20035;-86
2021/08/25 06:25:14;;;;;;;13.13;11.43;;;14.80;79.00;;;;;;5096422;28;20032;-85
2021/08/25 06:28:06;;;;;;;18.02;12.50;;;15.00;78.20;;;;;;5111657;28;20132;-85
2021/08/25 06:30:35;;;;;;;16.85;11.68;;;15.10;77.40;;;;;;5113066;28;20055;-85
2021/08/25 06:33:04;;;;;;;17.67;12.90;;;15.10;77.50;;;;;;5112800;28;20043;-84
2021/08/25 06:35:30;;;;;;;14.73;11.82;;;15.10;76.90;;;;;;5095633;28;20427;-84
2021/08/25 06:38:10;;;;;;;15.13;12.43;;;15.30;77.00;;;;;;5112359;28;20067;-84
2021/08/25 06:40:40;;;;;;;16.80;12.75;;;15.40;75.80;;;;;;5118261;28;20043;-84
2021/08/25 06:43:33;;;;;;;14.10;12.52;;;15.40;76.30;;;;;;5106306;28;20043;-84
2021/08/25 06:46:04;;;;;;;15.00;11.93;;;15.50;76.60;;;;;;5109722;28;20655;-83
2021/08/25 06:48:55;;;;;;;14.82;10.73;;;15.70;75.10;;;;;;5112524;28;20053;-85
2021/08/25 06:52:08;;;;;;;13.52;11.13;;;15.90;74.10;;;;;;5095815;28;20485;-85
2021/08/25 06:55:40;;;;;;;13.00;10.00;;;16.10;73.20;;;;;;5112508;28;20032;-85
2021/08/25 06:58:30;;;;;;;12.65;9.73;;;16.10;72.60;;;;;;5096684;28;20443;-84
2021/08/25 07:02:19;;;;;;;10.77;8.93;;;16.30;72.30;;;;;;5112045;28;20067;-86
2021/08/25 07:04:46;;;;;;;12.98;10.18;;;16.30;72.30;;;;;;5112239;28;20032;-85
2021/08/25 07:07:15;;;;;;;9.80;7.80;;;16.50;72.20;;;;;;5112110;28;20049;-85
2021/08/25 07:10:23;;;;;;;8.23;6.20;;;16.50;71.10;;;;;;5113567;28;20511;-86
2021/08/25 07:13:15;;;;;;;10.57;8.38;;;16.60;69.80;;;;;;5133985;28;20495;-82
2021/08/25 07:15:43;;;;;;;8.85;7.40;;;16.70;70.30;;;;;;5117287;28;20107;-83
2021/08/25 07:18:13;;;;;;;8.68;6.30;;;16.80;70.30;;;;;;5134690;28;20030;-82
2021/08/25 07:20:41;;;;;;;4.95;4.20;;;17.00;69.70;;;;;;5096364;28;20038;-74
2021/08/25 07:23:09;;;;;;;10.05;6.30;;;17.20;68.90;;;;;;5115069;28;20026;-76
2021/08/25 07:25:35;;;;;;;21.70;7.65;;;17.50;69.30;;;;;;5115691;28;20074;-76
2021/08/25 07:28:01;;;;;;;15.00;9.40;;;17.70;71.80;;;;;;5134555;28;20498;-75
2021/08/25 07:30:26;;;;;;;14.77;8.85;;;17.90;70.90;;;;;;5115609;28;20546;-76
2021/08/25 07:32:52;;;;;;;16.58;9.20;;;18.10;70.30;;;;;;5135064;28;20042;-73
2021/08/25 07:35:17;;;;;;;11.07;8.93;;;18.20;68.50;;;;;;5118612;28;20019;-74
2021/08/25 07:37:43;;;;;;;11.35;7.75;;;18.40;66.70;;;;;;5115626;28;20030;-78
2021/08/25 07:40:09;;;;;;;12.93;9.20;;;18.50;66.60;;;;;;5115885;28;20063;-80
2021/08/25 07:42:35;;;;;;;10.48;8.13;;;18.50;66.10;;;;;;5134838;28;20023;-76
2021/08/25 07:45:01;;;;;;;7.72;6.63;;;18.70;65.00;;;;;;5137674;28;20087;-77
2021/08/25 07:47:26;;;;;;;8.30;6.30;;;18.80;64.70;;;;;;5140712;28;20026;-78
2021/08/25 07:49:52;;;;;;;7.78;6.90;;;18.90;63.60;;;;;;5118034;28;20379;-79
2021/08/25 07:52:17;;;;;;;6.55;5.13;;;19.00;63.60;;;;;;5117921;28;20035;-79
2021/08/25 07:54:43;;;;;;;5.28;4.35;;;19.20;62.20;;;;;;5116241;28;20023;-78
2021/08/25 07:57:09;;;;;;;5.78;3.95;;;19.30;60.10;;;;;;5115130;28;20027;-75
2021/08/25 07:59:34;;;;;;;8.10;4.55;;;19.30;59.50;;;;;;5115066;28;20019;-78
2021/08/25 08:02:00;;;;;;;6.43;4.20;;;19.40;59.40;;;;;;5115532;28;20023;-78
2021/08/25 08:04:26;;;;;;;4.57;3.08;;;19.40;58.20;;;;;;5114950;28;20435;-78
2021/08/25 08:06:52;;;;;;;5.25;3.63;;;19.50;58.80;;;;;;5114838;28;20468;-78
2021/08/25 08:09:18;;;;;;;3.80;3.35;;;19.60;58.10;;;;;;5115071;28;20024;-78
2021/08/25 08:11:44;;;;;;;3.55;3.00;;;19.80;57.50;;;;;;5114198;28;20038;-77
2021/08/25 08:14:10;;;;;;;5.47;3.25;;;19.80;56.20;;;;;;5115057;28;20027;-79
2021/08/25 08:16:36;;;;;;;5.95;3.50;;;20.00;56.40;;;;;;5115919;27;20490;-80
2021/08/25 08:19:20;;;;;;;4.57;3.63;;;20.00;55.00;;;;;;5118503;27;20056;-77
2021/08/25 08:21:47;;;;;;;5.72;3.47;;;20.10;55.20;;;;;;5118439;27;20021;-78
2021/08/25 08:24:14;;;;;;;5.78;3.47;;;20.00;53.90;;;;;;5117559;27;20072;-78
2021/08/25 08:26:40;;;;;;;3.63;2.67;;;20.00;53.90;;;;;;5118411;27;20084;-77
2021/08/25 08:29:05;;;;;;;5.65;3.03;;;20.00;54.70;;;;;;5136863;27;20034;-79
2021/08/25 08:31:32;;;;;;;5.03;3.10;;;20.10;54.80;;;;;;5118146;27;20019;-79
2021/08/25 08:33:58;;;;;;;5.50;3.05;;;20.20;53.70;;;;;;5118272;27;20034;-79
2021/08/25 08:36:23;;;;;;;4.82;3.35;;;20.30;51.70;;;;;;5118389;27;20019;-75
2021/08/25 08:38:49;;;;;;;6.40;3.50;;;20.20;51.00;;;;;;5136850;27;20034;-77
2021/08/25 08:41:14;;;;;;;4.25;2.97;;;20.20;51.00;;;;;;5118996;27;20039;-78
2021/08/25 08:43:49;;;;;;;5.72;2.80;;;20.10;51.00;;;;;;5118380;27;20110;-78
2021/08/25 08:46:16;;;;;;;4.97;3.40;;;20.10;50.50;;;;;;5118866;27;20578;-79
2021/08/25 08:48:43;;;;;;;7.93;3.13;;;19.90;50.60;;;;;;5118950;27;20056;-78
2021/08/25 08:51:15;;;;;;;5.80;3.03;;;19.80;51.50;;;;;;5117863;27;20493;-76
2021/08/25 08:53:41;;;;;;;4.55;3.13;;;19.80;52.50;;;;;;5117522;27;20313;-77
2021/08/25 08:56:07;;;;;;;4.95;3.28;;;19.90;52.40;;;;;;5136060;27;20075;-76
2021/08/25 08:58:33;;;;;;;5.70;2.97;;;20.10;50.40;;;;;;5117881;27;20113;-78
2021/08/25 09:00:59;;;;;;;6.47;3.00;;;20.10;50.80;;;;;;5117591;27;20030;-76
2021/08/25 09:03:26;;;;;;;4.90;3.03;;;20.20;50.80;;;;;;5136295;27;20467;-78
2021/08/25 09:05:57;;;;;;;5.57;3.30;;;20.30;50.80;;;;;;5120115;27;20058;-82
2021/08/25 09:08:26;;;;;;;5.78;3.38;;;20.30;50.40;;;;;;5118007;27;20019;-77
2021/08/25 09:11:19;;;;;;;7.18;3.25;;;20.30;49.20;;;;;;5136371;27;20100;-78
2021/08/25 09:13:50;;;;;;;7.85;3.60;;;20.30;49.00;;;;;;5117549;27;20035;-77
2021/08/25 09:16:34;;;;;;;7.78;3.65;;;20.40;49.00;;;;;;5117695;27;20015;-78
2021/08/25 09:19:08;;;;;;;12.10;4.10;;;20.50;48.70;;;;;;5135655;27;20027;-79
2021/08/25 09:21:38;;;;;;;6.07;3.47;;;20.50;48.10;;;;;;5117352;27;20023;-79
2021/08/25 09:24:05;;;;;;;13.20;4.28;;;20.60;48.00;;;;;;5117147;27;20031;-78
2021/08/25 09:26:36;;;;;;;8.70;3.35;;;20.70;48.80;;;;;;5135535;27;20372;-79
2021/08/25 09:29:20;;;;;;;7.40;3.75;;;20.90;47.60;;;;;;5116617;27;20027;-78
2021/08/25 09:31:50;;;;;;;9.90;3.20;;;21.00;46.40;;;;;;5116452;27;20026;-77
2021/08/25 09:34:32;;;;;;;13.75;3.95;;;21.00;46.00;;;;;;5116932;27;20035;-79
2021/08/25 09:37:10;;;;;;;9.50;3.17;;;21.00;43.70;;;;;;5117091;27;20057;-79
2021/08/25 09:39:42;;;;;;;8.30;3.67;;;21.20;45.40;;;;;;5134923;27;20161;-77
2021/08/25 09:42:09;;;;;;;4.57;2.88;;;21.20;44.60;;;;;;5134694;27;20049;-78
2021/08/25 09:44:35;;;;;;;5.97;3.00;;;21.40;44.80;;;;;;5135194;27;20094;-77
2021/08/25 09:47:01;;;;;;;4.00;3.08;;;21.60;44.20;;;;;;5116586;27;20030;-78
2021/08/25 09:49:27;;;;;;;5.30;3.40;;;21.70;43.90;;;;;;5116860;27;20020;-78
2021/08/25 09:51:54;;;;;;;4.10;2.88;;;21.70;43.30;;;;;;5115812;27;20398;-77
2021/08/25 09:54:21;;;;;;;6.50;2.70;;;21.70;42.50;;;;;;5098764;27;20085;-78
2021/08/25 09:56:51;;;;;;;9.52;3.33;;;21.80;42.70;;;;;;5116420;27;20023;-76
2021/08/25 09:59:17;;;;;;;7.63;3.05;;;21.80;41.60;;;;;;5116395;27;20023;-77
2021/08/25 10:01:45;;;;;;;4.43;2.80;;;21.90;41.60;;;;;;5115901;27;20467;-77
2021/08/25 10:04:14;;;;;;;4.68;2.80;;;22.00;41.20;;;;;;5116577;27;20490;-78
2021/08/25 10:06:42;;;;;;;4.72;2.92;;;22.20;41.10;;;;;;5099570;27;20424;-78
2021/08/25 10:09:11;;;;;;;4.25;2.80;;;22.40;40.90;;;;;;5115673;27;20025;-79
2021/08/25 10:11:43;;;;;;;4.93;3.33;;;22.40;40.20;;;;;;5116167;27;20015;-79
2021/08/25 10:14:11;;;;;;;5.32;2.97;;;22.30;39.50;;;;;;5116425;27;20038;-79
2021/08/25 10:16:49;;;;;;;3.65;2.90;;;22.20;40.00;;;;;;5115842;27;20152;-80
2021/08/25 10:19:25;;;;;;;5.55;2.97;;;22.40;40.50;;;;;;5115890;27;20023;-78
2021/08/25 10:21:52;;;;;;;4.90;3.00;;;22.40;39.80;;;;;;5115672;27;20112;-79
2021/08/25 10:24:18;;;;;;;5.60;3.05;;;22.50;40.30;;;;;;5116390;27;20053;-79
2021/08/25 10:26:59;;;;;;;3.63;3.10;;;22.40;39.90;;;;;;5115290;27;20090;-79
2021/08/25 10:29:26;;;;;;;5.18;2.67;;;22.20;39.80;;;;;;5116488;27;20425;-80
2021/08/25 10:31:57;;;;;;;5.38;2.72;;;22.20;40.40;;;;;;5117512;27;20027;-78
2021/08/25 10:34:30;;;;;;;4.82;2.83;;;22.40;40.50;;;;;;5120980;27;20059;-78
2021/08/25 10:37:11;;;;;;;4.43;2.72;;;22.60;39.90;;;;;;5123237;27;20472;-78
2021/08/25 10:39:37;;;;;;;4.47;2.90;;;22.60;39.20;;;;;;5119983;27;20095;-78
2021/08/25 10:42:04;;;;;;;4.28;2.67;;;22.50;39.40;;;;;;5118516;27;20072;-78
2021/08/25 10:47:09;;;;;;;7.55;3.22;;;22.90;39.60;;;;;;5134639;27;20495;-77
2021/08/25 10:49:46;;;;;;;7.82;3.30;;;23.10;38.70;;;;;;5116481;27;20020;-79
2021/08/25 10:52:15;;;;;;;4.30;2.88;;;23.20;37.90;;;;;;5115785;27;20027;-79
2021/08/25 10:54:45;;;;;;;4.78;3.47;;;23.20;37.80;;;;;;5115822;27;20031;-78
2021/08/25 10:57:13;;;;;;;6.82;3.17;;;23.00;37.70;;;;;;5116365;27;20027;-79
2021/08/25 10:59:39;;;;;;;4.60;2.83;;;22.90;37.60;;;;;;5115747;27;20038;-80
2021/08/25 11:02:05;;;;;;;4.93;2.92;;;23.00;37.40;;;;;;5115858;27;20031;-78
2021/08/25 11:04:30;;;;;;;5.15;3.17;;;23.20;37.70;;;;;;5116411;28;20124;-83
2021/08/25 11:07:01;;;;;;;4.13;2.80;;;23.20;37.50;;;;;;5134125;27;20046;-79
2021/08/25 11:09:38;;;;;;;7.13;3.55;;;23.50;37.60;;;;;;5100185;28;20030;-80
2021/08/25 11:12:14;;;;;;;4.65;3.10;;;23.80;38.00;;;;;;5116002;28;20026;-78
2021/08/25 11:14:55;;;;;;;5.13;3.50;;;24.00;36.00;;;;;;5133559;28;20026;-77
2021/08/25 11:17:25;;;;;;;3.95;2.65;;;24.20;36.00;;;;;;5133456;28;20484;-77
2021/08/25 11:20:07;;;;;;;3.38;2.80;;;24.20;35.20;;;;;;5124810;28;20042;-78
2021/08/25 11:22:38;;;;;;;3.97;3.00;;;24.30;35.00;;;;;;5119014;28;20084;-74
2021/08/25 11:25:08;;;;;;;5.97;3.35;;;24.20;35.90;;;;;;5097913;28;20065;-75
2021/08/25 11:27:43;;;;;;;4.28;3.30;;;24.10;35.00;;;;;;5133434;28;20023;-75
2021/08/25 11:30:18;;;;;;;5.72;3.20;;;23.80;34.90;;;;;;5114749;28;20466;-77
2021/08/25 11:32:51;;;;;;;4.60;3.40;;;23.60;35.40;;;;;;5114873;28;20512;-77
2021/08/25 11:35:28;;;;;;;4.25;2.95;;;23.70;36.00;;;;;;5119899;28;20452;-77
2021/08/25 11:38:08;;;;;;;6.95;3.20;;;23.90;35.90;;;;;;5133720;28;20023;-77
2021/08/25 11:40:38;;;;;;;4.43;2.97;;;24.30;34.50;;;;;;5133722;28;20403;-77
2021/08/25 11:43:12;;;;;;;4.05;3.38;;;24.60;34.30;;;;;;5115305;28;20106;-77
2021/08/25 11:45:40;;;;;;;5.00;2.90;;;25.00;35.10;;;;;;5133830;27;20487;-77
2021/08/25 11:48:08;;;;;;;5.07;3.10;;;25.50;34.60;;;;;;5114881;28;20037;-78
2021/08/25 11:50:39;;;;;;;4.60;3.33;;;25.90;33.30;;;;;;5115569;27;20050;-77
2021/08/25 11:53:21;;;;;;;3.83;2.97;;;26.10;33.50;;;;;;5119249;27;20058;-77
2021/08/25 11:55:49;;;;;;;6.07;3.28;;;26.10;32.00;;;;;;5118370;27;20098;-77
2021/08/25 11:58:26;;;;;;;4.47;2.75;;;26.00;32.00;;;;;;5137752;27;20027;-77
2021/08/25 12:00:58;;;;;;;5.20;2.63;;;26.10;31.70;;;;;;5118567;27;20026;-76
2021/08/25 12:03:43;;;;;;;5.75;2.80;;;26.20;31.60;;;;;;5119201;27;20031;-76
2021/08/25 12:06:14;;;;;;;5.18;3.13;;;26.40;31.60;;;;;;5118794;27;20471;-78
2021/08/25 12:08:45;;;;;;;6.15;3.00;;;26.70;31.50;;;;;;5118438;27;20023;-76
2021/08/25 12:11:13;;;;;;;4.18;3.05;;;26.90;30.50;;;;;;5118753;27;20047;-76
2021/08/25 12:13:43;;;;;;;6.35;3.33;;;26.60;30.20;;;;;;5101626;27;20043;-77
2021/08/25 12:16:23;;;;;;;6.55;2.85;;;26.30;30.70;;;;;;5118474;27;20015;-77
2021/08/25 12:18:55;;;;;;;6.63;3.53;;;26.40;31.00;;;;;;5119392;27;20027;-76
2021/08/25 12:21:26;;;;;;;5.00;3.38;;;26.60;31.70;;;;;;5118744;27;20034;-77
2021/08/25 12:24:04;;;;;;;4.53;3.15;;;26.80;32.70;;;;;;5118593;27;20034;-77
2021/08/25 12:26:31;;;;;;;5.60;3.10;;;27.10;32.10;;;;;;5136947;27;20534;-76
2021/08/25 12:28:58;;;;;;;4.18;3.15;;;27.40;31.90;;;;;;5118249;27;20038;-77
2021/08/25 12:31:30;;;;;;;4.68;2.97;;;27.50;32.20;;;;;;5118256;27;20479;-77
2021/08/25 12:34:10;;;;;;;4.10;2.95;;;27.60;31.50;;;;;;5117658;27;20045;-78
2021/08/25 12:36:42;;;;;;;4.63;3.88;;;27.30;30.20;;;;;;5118305;27;20019;-77
2021/08/25 12:39:09;;;;;;;6.05;4.03;;;26.60;31.50;;;;;;5136328;27;20016;-78
2021/08/25 12:41:36;;;;;;;4.45;3.42;;;26.20;34.20;;;;;;5118001;27;20122;-78
2021/08/25 12:44:03;;;;;;;5.05;3.40;;;25.60;34.90;;;;;;5118034;27;20072;-78
2021/08/25 12:46:28;;;;;;;5.47;3.30;;;25.20;37.10;;;;;;5117362;27;20050;-77
2021/08/25 12:48:54;;;;;;;4.18;3.38;;;25.50;36.30;;;;;;5100619;27;20091;-77
2021/08/25 12:51:20;;;;;;;7.75;3.55;;;25.90;34.60;;;;;;5117647;27;20051;-78
2021/08/25 12:53:47;;;;;;;4.72;3.42;;;26.40;34.90;;;;;;5117412;27;20084;-78
2021/08/25 12:56:12;;;;;;;6.20;3.35;;;26.90;34.30;;;;;;5136116;27;20022;-77